Time;durP1;ratioP1;P1;durP2;ratioP2;P2;SDS_P1;SDS_P2;PMS_P1;PMS_P2;Temp;Humidity;BMP_temperature;BMP_pressure;BME280_temperature;BME280_humidity;BME280_pressure;Samples;Min_cycle;Max_cycle;Signal;HPM_P1;HPM_P2
2022/06/28 00:00:08;;;;;;;3.17;1.02;;;14.40;99.90;;;;;;5049451;28;20328;-59
2022/06/28 00:02:33;;;;;;;4.82;1.27;;;14.30;99.90;;;;;;5050845;28;20033;-59
2022/06/28 00:04:59;;;;;;;3.83;1.20;;;14.40;99.90;;;;;;5050799;28;20442;-60
2022/06/28 00:07:25;;;;;;;2.00;1.05;;;14.40;99.90;;;;;;5050582;28;20025;-60
2022/06/28 00:09:50;;;;;;;5.22;1.20;;;14.40;99.90;;;;;;5049307;28;20028;-60
2022/06/28 00:12:16;;;;;;;4.50;1.35;;;14.30;99.90;;;;;;5050722;28;20029;-59
2022/06/28 00:17:26;;;;;;;4.90;1.20;;;14.30;99.90;;;;;;5050549;28;20040;-60
2022/06/28 00:19:52;;;;;;;4.50;1.20;;;14.30;99.90;;;;;;5049400;28;20029;-59
2022/06/28 00:22:17;;;;;;;5.75;1.00;;;14.30;99.90;;;;;;5050441;28;20056;-59
2022/06/28 00:24:43;;;;;;;4.25;1.27;;;14.30;99.90;;;;;;5052791;28;20029;-60
2022/06/28 00:27:09;;;;;;;5.55;1.20;;;14.30;99.90;;;;;;5054427;28;20102;-59
2022/06/28 00:29:35;;;;;;;5.95;1.50;;;14.30;99.90;;;;;;5053390;28;20551;-59
2022/06/28 00:32:00;;;;;;;3.55;0.98;;;14.30;99.90;;;;;;5054539;28;20037;-59
2022/06/28 00:34:26;;;;;;;5.55;1.13;;;14.30;99.90;;;;;;5054331;28;20076;-59
2022/06/28 00:36:51;;;;;;;6.55;1.23;;;14.30;99.90;;;;;;5054514;28;20096;-59
2022/06/28 00:39:17;;;;;;;4.60;1.30;;;14.40;99.90;;;;;;5054246;28;20569;-60
2022/06/28 00:41:43;;;;;;;4.57;1.20;;;14.60;99.90;;;;;;5054359;28;20025;-59
2022/06/28 00:44:13;;;;;;;7.22;1.05;;;14.60;99.90;;;;;;5054231;28;20474;-60
2022/06/28 00:46:39;;;;;;;4.55;1.20;;;14.60;99.90;;;;;;5054672;28;20429;-60
2022/06/28 00:49:06;;;;;;;2.28;1.27;;;14.60;99.90;;;;;;5054461;28;20035;-59
2022/06/28 00:51:32;;;;;;;6.90;1.33;;;14.60;99.90;;;;;;5054478;28;20112;-59
2022/06/28 00:53:58;;;;;;;6.28;1.17;;;14.50;99.90;;;;;;5054123;28;20112;-59
2022/06/28 00:56:24;;;;;;;4.18;1.15;;;14.50;99.90;;;;;;5054288;28;20025;-59
2022/06/28 00:58:52;;;;;;;4.72;1.05;;;14.60;99.90;;;;;;5052733;28;20021;-59
2022/06/28 01:01:20;;;;;;;3.60;0.95;;;14.70;99.90;;;;;;5053818;28;20501;-59
2022/06/28 01:03:45;;;;;;;2.60;0.98;;;14.70;99.90;;;;;;5053890;28;20474;-59
2022/06/28 01:06:11;;;;;;;3.45;0.90;;;14.80;99.90;;;;;;5054044;28;20020;-60
2022/06/28 01:08:37;;;;;;;5.78;1.40;;;14.70;99.90;;;;;;5053563;28;20388;-59
2022/06/28 01:11:18;;;;;;;5.28;1.42;;;14.60;99.90;;;;;;5053793;28;20473;-61
2022/06/28 01:13:53;;;;;;;5.78;1.02;;;14.70;99.90;;;;;;5052237;28;20024;-60
2022/06/28 01:16:20;;;;;;;3.47;1.00;;;14.70;99.90;;;;;;5053867;28;20032;-59
2022/06/28 01:18:46;;;;;;;2.53;1.10;;;14.70;99.90;;;;;;5053452;28;20043;-60
2022/06/28 01:21:14;;;;;;;7.40;1.20;;;14.80;99.90;;;;;;5053574;28;20120;-59
2022/06/28 01:23:44;;;;;;;3.72;1.10;;;14.80;99.90;;;;;;5052031;28;20485;-60
2022/06/28 01:26:12;;;;;;;3.88;0.85;;;14.70;99.90;;;;;;5053791;28;20025;-59
2022/06/28 01:28:38;;;;;;;4.53;1.00;;;14.60;99.90;;;;;;5053354;28;20028;-60
2022/06/28 01:31:05;;;;;;;4.65;1.30;;;14.70;99.90;;;;;;5053385;28;20037;-60
2022/06/28 01:33:32;;;;;;;4.53;1.00;;;14.60;99.90;;;;;;5053249;28;20044;-58
2022/06/28 01:35:58;;;;;;;6.30;1.60;;;14.60;99.90;;;;;;5052610;28;20037;-59
2022/06/28 01:38:24;;;;;;;5.38;0.95;;;14.50;99.90;;;;;;5053156;28;20496;-59
2022/06/28 01:40:50;;;;;;;4.72;1.75;;;14.40;99.90;;;;;;5053734;28;20460;-59
2022/06/28 01:43:17;;;;;;;5.25;1.10;;;14.40;99.90;;;;;;5052857;28;20044;-59
2022/06/28 01:45:43;;;;;;;5.45;1.00;;;14.40;99.90;;;;;;5052867;28;20499;-59
2022/06/28 01:48:09;;;;;;;6.47;0.90;;;14.40;99.90;;;;;;5053191;28;20097;-60
2022/06/28 01:50:34;;;;;;;7.57;1.25;;;14.20;99.90;;;;;;5052899;28;20025;-58
2022/06/28 01:53:00;;;;;;;4.70;1.00;;;14.20;99.90;;;;;;5053203;28;20431;-59
2022/06/28 01:55:26;;;;;;;4.80;1.23;;;14.10;99.90;;;;;;5052819;28;20604;-59
2022/06/28 01:57:52;;;;;;;6.95;1.17;;;14.10;99.90;;;;;;5052626;28;20048;-59
2022/06/28 02:00:17;;;;;;;6.38;1.25;;;14.10;99.90;;;;;;5052595;28;20078;-59
2022/06/28 02:02:43;;;;;;;4.25;1.05;;;14.10;99.90;;;;;;5052950;28;20056;-59
2022/06/28 02:05:09;;;;;;;5.63;1.40;;;14.10;99.90;;;;;;5052757;28;20036;-59
2022/06/28 02:07:34;;;;;;;7.32;1.27;;;14.00;99.90;;;;;;5052526;28;20079;-58
2022/06/28 02:10:01;;;;;;;5.15;1.20;;;13.90;99.90;;;;;;5052593;28;20029;-59
2022/06/28 02:12:28;;;;;;;5.25;1.27;;;13.80;99.90;;;;;;5052570;28;20082;-59
2022/06/28 02:14:56;;;;;;;6.50;1.33;;;13.80;99.90;;;;;;5051463;28;20064;-59
2022/06/28 02:17:21;;;;;;;3.97;1.33;;;13.70;99.90;;;;;;5051134;28;20508;-59
2022/06/28 02:19:47;;;;;;;4.68;1.13;;;13.70;99.90;;;;;;5051229;28;20025;-63
2022/06/28 02:22:13;;;;;;;3.72;1.02;;;13.60;99.90;;;;;;5050937;28;20036;-59
2022/06/28 02:24:38;;;;;;;8.93;1.40;;;13.60;99.90;;;;;;5052630;28;20516;-59
2022/06/28 02:27:05;;;;;;;6.05;1.40;;;13.60;99.90;;;;;;5052458;28;20025;-59
2022/06/28 02:29:31;;;;;;;4.72;1.23;;;13.50;99.90;;;;;;5052447;28;20029;-58
2022/06/28 02:31:56;;;;;;;7.60;1.75;;;13.50;99.90;;;;;;5052449;28;20110;-58
2022/06/28 02:42:34;;;;;;;6.25;1.65;;;13.60;99.90;;;;;;5052219;28;20032;-58
2022/06/28 02:45:00;;;;;;;5.75;1.90;;;13.60;99.90;;;;;;5052277;28;20017;-59
2022/06/28 02:47:25;;;;;;;8.05;1.90;;;13.70;99.90;;;;;;5051327;28;20021;-58
2022/06/28 02:49:51;;;;;;;5.82;1.45;;;13.70;99.90;;;;;;5052035;28;20083;-59
2022/06/28 02:52:17;;;;;;;9.15;2.08;;;13.70;99.90;;;;;;5052025;28;20035;-59
2022/06/28 02:54:42;;;;;;;6.53;1.92;;;13.70;99.90;;;;;;5051797;28;20463;-59
2022/06/28 02:57:08;;;;;;;9.98;1.80;;;13.70;99.90;;;;;;5051778;28;20067;-60
2022/06/28 02:59:33;;;;;;;9.27;1.88;;;13.70;99.90;;;;;;5051481;28;20100;-59
2022/06/28 03:01:59;;;;;;;6.32;1.77;;;13.60;99.90;;;;;;5051488;28;20029;-58
2022/06/28 03:04:25;;;;;;;7.22;2.15;;;13.50;99.90;;;;;;5051553;28;20363;-59
2022/06/28 03:06:50;;;;;;;6.78;1.80;;;13.40;99.90;;;;;;5051643;28;20079;-58
2022/06/28 03:09:16;;;;;;;7.22;1.60;;;13.40;99.90;;;;;;5051654;28;20021;-58
2022/06/28 03:11:42;;;;;;;7.40;2.15;;;13.30;99.90;;;;;;5051635;28;20103;-58
2022/06/28 03:14:07;;;;;;;8.25;2.05;;;13.40;99.90;;;;;;5051331;28;20029;-59
2022/06/28 03:16:33;;;;;;;9.35;2.33;;;13.40;99.90;;;;;;5051644;28;20056;-58
2022/06/28 03:18:59;;;;;;;7.82;1.80;;;13.30;99.90;;;;;;5051053;28;20025;-57
2022/06/28 03:21:24;;;;;;;7.65;2.03;;;13.40;99.90;;;;;;5051043;28;20056;-59
2022/06/28 03:23:50;;;;;;;5.05;1.73;;;13.40;99.90;;;;;;5050962;28;20033;-59
2022/06/28 03:26:15;;;;;;;11.30;2.20;;;13.30;99.90;;;;;;5051139;28;20029;-59
2022/06/28 03:28:41;;;;;;;5.15;2.40;;;13.30;99.90;;;;;;5051111;28;20440;-58
2022/06/28 03:31:07;;;;;;;6.22;1.95;;;13.20;99.90;;;;;;5051135;28;20482;-59
2022/06/28 03:33:32;;;;;;;6.97;1.92;;;13.00;99.90;;;;;;5051214;28;20029;-59
2022/06/28 03:35:58;;;;;;;9.00;2.20;;;12.80;99.90;;;;;;5051022;28;20340;-58
2022/06/28 03:38:23;;;;;;;9.48;2.10;;;12.70;99.90;;;;;;5050737;28;20071;-59
2022/06/28 03:40:49;;;;;;;6.05;2.65;;;12.60;99.90;;;;;;5050815;28;20033;-59
2022/06/28 03:43:15;;;;;;;8.15;2.33;;;12.50;99.90;;;;;;5050562;28;20055;-58
2022/06/28 03:45:41;;;;;;;5.82;2.53;;;12.40;99.90;;;;;;5051105;28;20079;-58
2022/06/28 03:48:06;;;;;;;6.60;2.38;;;12.30;99.90;;;;;;5050981;28;20374;-58
2022/06/28 03:50:32;;;;;;;4.10;2.30;;;12.20;99.90;;;;;;5050708;28;20021;-58
2022/06/28 03:52:58;;;;;;;9.07;2.78;;;12.10;99.90;;;;;;5050612;28;20028;-58
2022/06/28 03:55:23;;;;;;;4.78;2.45;;;12.00;99.90;;;;;;5050792;28;20068;-58
2022/06/28 03:57:49;;;;;;;5.65;2.88;;;12.00;99.90;;;;;;5050448;28;20033;-60
2022/06/28 04:00:15;;;;;;;5.85;2.58;;;12.00;99.90;;;;;;5050707;28;20027;-58
2022/06/28 04:02:41;;;;;;;5.28;2.42;;;12.00;99.90;;;;;;5050662;28;20100;-58
2022/06/28 04:05:06;;;;;;;11.15;2.38;;;12.00;99.90;;;;;;5050778;28;20083;-58
2022/06/28 04:07:32;;;;;;;4.75;2.42;;;11.90;99.90;;;;;;5050723;28;20048;-58
2022/06/28 04:09:58;;;;;;;8.68;2.70;;;11.90;99.90;;;;;;5050558;28;20109;-57
2022/06/28 04:12:23;;;;;;;13.07;3.15;;;12.00;99.90;;;;;;5050672;28;20036;-59
2022/06/28 04:14:49;;;;;;;5.60;2.50;;;12.10;99.90;;;;;;5049470;28;20029;-58
2022/06/28 04:17:15;;;;;;;7.60;2.88;;;12.10;99.90;;;;;;5050304;28;20079;-59
2022/06/28 04:19:40;;;;;;;5.13;2.50;;;12.20;99.90;;;;;;5050424;28;20036;-59
2022/06/28 04:22:06;;;;;;;10.73;2.88;;;12.10;99.90;;;;;;5050440;28;20128;-58
2022/06/28 04:24:32;;;;;;;5.13;2.85;;;12.10;99.90;;;;;;5050543;28;20075;-58
2022/06/28 04:26:57;;;;;;;4.65;2.67;;;12.20;99.90;;;;;;5049132;28;20111;-58
2022/06/28 04:29:23;;;;;;;11.93;3.05;;;12.20;99.90;;;;;;5050399;28;20029;-58
2022/06/28 04:31:49;;;;;;;6.57;3.22;;;12.30;99.90;;;;;;5050536;28;20117;-59
2022/06/28 04:34:14;;;;;;;9.00;2.80;;;12.40;99.90;;;;;;5050495;28;20029;-58
2022/06/28 04:36:40;;;;;;;9.25;2.85;;;12.40;99.90;;;;;;5050529;28;20497;-58
2022/06/28 04:39:06;;;;;;;6.95;2.80;;;12.30;99.90;;;;;;5048859;28;20036;-58
2022/06/28 04:41:31;;;;;;;6.88;3.40;;;12.30;99.90;;;;;;5050236;28;20025;-58
2022/06/28 04:43:57;;;;;;;10.10;3.15;;;12.30;99.90;;;;;;5050285;28;20024;-57
2022/06/28 04:46:23;;;;;;;9.48;2.72;;;12.40;99.90;;;;;;5050354;28;20225;-58
2022/06/28 04:48:49;;;;;;;10.88;2.97;;;12.40;99.90;;;;;;5050275;28;20021;-57
2022/06/28 04:51:15;;;;;;;10.38;2.97;;;12.60;99.90;;;;;;5050594;28;20098;-58
2022/06/28 04:53:42;;;;;;;9.55;2.33;;;12.60;99.90;;;;;;5050167;28;20225;-58
2022/06/28 04:56:09;;;;;;;15.10;2.75;;;12.70;99.90;;;;;;5050070;28;20049;-59
2022/06/28 04:58:35;;;;;;;13.10;2.70;;;12.80;99.90;;;;;;5050084;28;20025;-58
2022/06/28 05:01:01;;;;;;;7.65;2.60;;;12.90;99.90;;;;;;5050453;28;20381;-59
2022/06/28 05:03:27;;;;;;;7.07;2.53;;;13.00;99.90;;;;;;5050068;28;20083;-58
2022/06/28 05:05:53;;;;;;;8.20;2.78;;;13.10;99.90;;;;;;5049986;28;20033;-58
2022/06/28 05:08:19;;;;;;;6.57;2.58;;;13.10;99.90;;;;;;5050134;28;20366;-58
2022/06/28 05:10:45;;;;;;;9.63;2.58;;;13.20;99.90;;;;;;5051556;28;20033;-57
2022/06/28 05:13:10;;;;;;;12.90;2.70;;;13.30;99.90;;;;;;5053362;28;20075;-57
2022/06/28 05:15:36;;;;;;;9.73;2.42;;;13.30;99.90;;;;;;5052259;28;20065;-57
2022/06/28 05:18:02;;;;;;;6.78;2.13;;;13.50;99.90;;;;;;5053139;28;20349;-60
2022/06/28 05:20:28;;;;;;;7.53;2.03;;;13.60;99.90;;;;;;5053770;28;20382;-58
2022/06/28 05:22:54;;;;;;;7.90;2.10;;;13.60;99.90;;;;;;5053195;28;20031;-58
2022/06/28 05:25:19;;;;;;;13.85;2.53;;;13.80;99.90;;;;;;5053187;28;20482;-57
2022/06/28 05:27:45;;;;;;;10.15;2.10;;;13.90;99.90;;;;;;5053202;28;20364;-58
2022/06/28 05:30:11;;;;;;;9.00;2.03;;;14.00;99.90;;;;;;5052998;28;20021;-58
2022/06/28 05:32:37;;;;;;;9.93;2.38;;;14.20;99.90;;;;;;5053442;28;20047;-58
2022/06/28 05:35:04;;;;;;;12.10;1.77;;;14.30;99.90;;;;;;5051861;28;20041;-58
2022/06/28 05:37:29;;;;;;;5.32;1.92;;;14.30;99.90;;;;;;5053623;28;20544;-58
2022/06/28 05:39:55;;;;;;;13.75;2.45;;;14.30;99.90;;;;;;5071172;28;20082;-58
2022/06/28 05:42:20;;;;;;;9.73;3.00;;;14.30;99.90;;;;;;5072824;28;20531;-58
2022/06/28 05:44:46;;;;;;;7.05;2.20;;;14.40;99.90;;;;;;5073094;28;20111;-58
2022/06/28 05:47:12;;;;;;;8.30;1.98;;;14.40;99.90;;;;;;5062642;28;20086;-57
2022/06/28 05:49:38;;;;;;;12.25;2.05;;;14.50;99.90;;;;;;5054349;28;20205;-57
2022/06/28 05:52:08;;;;;;;13.10;2.33;;;14.60;99.90;;;;;;5071196;28;20065;-58
2022/06/28 05:54:35;;;;;;;9.07;1.80;;;14.70;99.90;;;;;;5054196;28;20413;-59
2022/06/28 05:57:01;;;;;;;13.88;2.03;;;14.90;99.90;;;;;;5067239;28;20021;-58
2022/06/28 05:59:27;;;;;;;8.60;2.05;;;14.90;99.90;;;;;;5062489;28;20051;-59
2022/06/28 06:01:55;;;;;;;13.25;2.40;;;14.90;99.90;;;;;;5069092;28;20037;-56
2022/06/28 06:04:22;;;;;;;9.18;1.98;;;15.00;99.90;;;;;;5064085;28;20053;-56
2022/06/28 06:06:48;;;;;;;9.23;2.33;;;15.10;99.90;;;;;;5061434;28;20490;-56
2022/06/28 06:09:14;;;;;;;12.82;2.10;;;15.10;99.90;;;;;;5063423;28;20165;-59
2022/06/28 06:11:40;;;;;;;9.85;1.98;;;15.10;99.90;;;;;;5061416;28;20052;-59
2022/06/28 06:14:06;;;;;;;15.18;2.50;;;15.20;99.90;;;;;;5061192;28;20798;-58
2022/06/28 06:16:31;;;;;;;5.53;1.90;;;15.40;99.90;;;;;;5060887;28;20401;-58
2022/06/28 06:18:57;;;;;;;6.07;1.83;;;15.40;99.90;;;;;;5061687;28;20124;-58
2022/06/28 06:21:23;;;;;;;7.30;1.83;;;15.40;99.90;;;;;;5053535;28;20587;-58
2022/06/28 06:23:49;;;;;;;13.55;1.98;;;15.40;99.90;;;;;;5059491;28;20032;-59
2022/06/28 06:26:14;;;;;;;7.90;1.45;;;15.50;99.90;;;;;;5060689;28;20028;-59
2022/06/28 06:28:40;;;;;;;6.88;1.85;;;15.70;99.90;;;;;;5058103;28;20038;-58
2022/06/28 06:31:08;;;;;;;9.82;1.95;;;15.80;99.90;;;;;;5052382;28;20028;-58
2022/06/28 06:33:34;;;;;;;11.52;1.73;;;15.80;99.90;;;;;;5053581;28;20024;-58
2022/06/28 06:36:00;;;;;;;6.40;1.40;;;15.80;99.90;;;;;;5044451;28;20035;-58
2022/06/28 06:38:26;;;;;;;9.48;1.85;;;16.00;99.90;;;;;;5054335;28;20028;-58
2022/06/28 06:40:54;;;;;;;7.47;1.55;;;16.20;99.90;;;;;;5060949;28;20033;-58
2022/06/28 06:43:20;;;;;;;8.32;2.00;;;17.00;99.90;;;;;;5054166;28;20668;-58
2022/06/28 06:45:46;;;;;;;6.95;1.30;;;18.40;99.90;;;;;;5045345;28;20033;-58
2022/06/28 06:48:11;;;;;;;6.55;1.40;;;19.50;99.90;;;;;;5053507;28;20032;-58
2022/06/28 06:50:37;;;;;;;6.65;1.40;;;19.50;99.90;;;;;;5055415;28;20471;-58
2022/06/28 06:53:03;;;;;;;7.50;1.60;;;19.20;99.90;;;;;;5051166;28;20024;-57
2022/06/28 06:55:28;;;;;;;9.07;1.58;;;19.50;99.90;;;;;;5045456;28;20098;-58
2022/06/28 06:57:54;;;;;;;7.97;1.38;;;20.00;99.90;;;;;;5046337;28;20028;-58
2022/06/28 07:00:20;;;;;;;7.72;1.70;;;20.20;99.90;;;;;;5051971;28;20021;-59
2022/06/28 07:02:46;;;;;;;9.35;1.40;;;20.50;99.90;;;;;;5044114;28;20931;-59
2022/06/28 07:05:11;;;;;;;9.32;1.75;;;21.00;99.90;;;;;;5048568;28;20452;-59
2022/06/28 07:07:37;;;;;;;8.60;1.50;;;21.30;99.90;;;;;;5044995;28;20310;-59
2022/06/28 07:10:03;;;;;;;9.65;1.95;;;22.00;99.90;;;;;;5045756;28;20508;-60
2022/06/28 07:12:29;;;;;;;8.40;1.60;;;22.80;99.90;;;;;;5051139;28;20036;-59
2022/06/28 07:14:55;;;;;;;5.80;1.40;;;23.00;99.90;;;;;;5048273;28;20056;-59
2022/06/28 07:17:21;;;;;;;4.95;1.23;;;22.50;99.90;;;;;;5043651;28;20537;-59
2022/06/28 07:19:46;;;;;;;4.45;1.40;;;22.60;99.90;;;;;;5040667;28;20119;-59
2022/06/28 07:22:12;;;;;;;5.63;1.60;;;23.00;99.90;;;;;;5047003;28;20194;-59
2022/06/28 07:24:38;;;;;;;4.72;1.20;;;22.90;99.90;;;;;;5038192;28;20052;-59
2022/06/28 07:27:06;;;;;;;5.85;1.30;;;23.10;99.10;;;;;;5048361;28;20078;-59
2022/06/28 07:29:32;;;;;;;4.47;1.05;;;23.60;98.00;;;;;;5050657;28;20603;-59
2022/06/28 07:31:58;;;;;;;5.80;1.35;;;23.70;94.70;;;;;;5045270;28;20041;-59
2022/06/28 07:34:24;;;;;;;4.30;0.93;;;24.10;93.50;;;;;;5049814;28;20021;-59
2022/06/28 07:36:50;;;;;;;4.85;1.55;;;24.60;91.40;;;;;;5049018;28;20054;-59
2022/06/28 07:39:15;;;;;;;4.43;0.90;;;24.50;92.50;;;;;;5051270;28;20543;-59
2022/06/28 07:41:41;;;;;;;5.13;1.10;;;24.30;91.50;;;;;;5046614;28;20036;-59
2022/06/28 07:44:07;;;;;;;6.80;1.23;;;24.00;92.30;;;;;;5038996;28;20078;-60
2022/06/28 07:46:32;;;;;;;3.30;0.80;;;24.00;91.60;;;;;;5040597;28;20204;-60
2022/06/28 07:48:58;;;;;;;4.95;0.90;;;24.50;87.10;;;;;;5050009;28;20027;-60
2022/06/28 07:54:08;;;;;;;5.88;0.93;;;24.80;89.50;;;;;;5042328;28;20093;-60
2022/06/28 07:56:34;;;;;;;4.63;1.00;;;25.80;85.30;;;;;;5047583;28;20032;-59
2022/06/28 07:59:00;;;;;;;4.30;1.30;;;25.80;85.10;;;;;;5046617;28;20028;-59
2022/06/28 08:01:26;;;;;;;2.80;0.90;;;25.20;87.30;;;;;;5045712;28;20037;-59
2022/06/28 08:03:52;;;;;;;4.88;0.80;;;25.70;85.90;;;;;;5047625;28;20040;-59
2022/06/28 08:06:17;;;;;;;5.13;0.95;;;25.60;86.70;;;;;;5044652;28;20028;-59
2022/06/28 08:08:43;;;;;;;9.63;1.50;;;25.40;86.10;;;;;;5049316;28;20420;-59
2022/06/28 08:11:10;;;;;;;4.85;1.10;;;26.10;85.10;;;;;;5045739;28;20546;-61
2022/06/28 08:13:37;;;;;;;6.07;1.17;;;25.90;83.30;;;;;;5044673;28;20236;-58
2022/06/28 08:16:03;;;;;;;7.60;1.20;;;24.70;85.90;;;;;;5049387;28;20035;-58
2022/06/28 08:18:29;;;;;;;2.35;0.65;;;24.10;89.50;;;;;;5049994;28;20124;-59
2022/06/28 08:20:55;;;;;;;3.88;0.70;;;24.20;88.30;;;;;;5053812;28;20033;-61
2022/06/28 08:23:21;;;;;;;2.47;1.02;;;24.80;87.90;;;;;;5051371;28;20025;-60
2022/06/28 08:25:47;;;;;;;5.47;0.95;;;25.00;84.80;;;;;;5053039;28;20024;-59
2022/06/28 08:28:13;;;;;;;5.82;1.00;;;24.70;85.70;;;;;;5042710;28;20679;-59
2022/06/28 08:30:39;;;;;;;2.88;0.57;;;24.90;86.30;;;;;;5053010;28;20074;-59
2022/06/28 08:33:05;;;;;;;7.70;1.10;;;25.10;84.00;;;;;;5053267;28;20025;-59
2022/06/28 08:35:31;;;;;;;4.40;0.90;;;25.10;83.20;;;;;;5051162;28;20062;-59
2022/06/28 08:37:56;;;;;;;4.80;0.90;;;25.60;82.20;;;;;;5068642;28;20040;-59
2022/06/28 08:40:25;;;;;;;3.72;0.90;;;25.30;84.70;;;;;;5053009;28;20108;-58
2022/06/28 08:43:23;;;;;;;4.78;1.00;;;25.60;82.70;;;;;;5046657;28;20114;-57
2022/06/28 08:45:49;;;;;;;3.13;0.80;;;26.30;79.90;;;;;;5055013;28;20462;-58
2022/06/28 08:48:22;;;;;;;3.50;0.73;;;26.90;78.40;;;;;;5056959;28;20032;-58
2022/06/28 08:50:53;;;;;;;2.55;0.65;;;26.40;78.00;;;;;;5057248;28;20148;-58
2022/06/28 08:53:49;;;;;;;1.50;0.68;;;26.00;78.50;;;;;;5051780;28;20119;-58
2022/06/28 08:56:15;;;;;;;4.80;1.17;;;24.80;82.80;;;;;;5050053;28;20170;-58
2022/06/28 08:58:44;;;;;;;4.60;0.73;;;25.60;82.30;;;;;;5053799;28;20051;-58
2022/06/28 09:01:12;;;;;;;2.25;0.70;;;26.10;79.50;;;;;;5053997;28;20525;-58
2022/06/28 09:03:38;;;;;;;2.80;0.70;;;25.60;80.30;;;;;;5054293;28;20029;-58
2022/06/28 09:06:05;;;;;;;5.63;0.57;;;25.80;81.40;;;;;;5057573;28;20028;-58
2022/06/28 09:08:31;;;;;;;2.97;0.65;;;26.10;81.30;;;;;;5054796;28;20024;-58
2022/06/28 09:10:57;;;;;;;2.85;0.77;;;26.60;81.20;;;;;;5055275;28;20032;-58
2022/06/28 09:13:23;;;;;;;2.65;0.82;;;26.40;81.30;;;;;;5051649;28;20033;-58
2022/06/28 09:15:51;;;;;;;3.08;0.80;;;26.20;82.60;;;;;;5054516;28;20040;-58
2022/06/28 09:18:19;;;;;;;6.80;0.90;;;26.80;79.50;;;;;;5052582;28;20047;-58
2022/06/28 09:20:45;;;;;;;5.22;0.80;;;25.80;82.50;;;;;;5052588;28;20025;-58
2022/06/28 09:23:22;;;;;;;5.65;0.88;;;26.30;83.20;;;;;;5054582;28;20401;-58
2022/06/28 09:25:48;;;;;;;3.58;0.70;;;26.50;80.30;;;;;;5050760;28;20727;-58
2022/06/28 09:28:23;;;;;;;2.97;1.00;;;26.40;80.90;;;;;;5053341;28;20032;-58
2022/06/28 09:30:48;;;;;;;3.17;0.80;;;25.70;81.50;;;;;;5054630;28;20067;-58
2022/06/28 09:33:27;;;;;;;2.28;0.60;;;25.60;83.20;;;;;;5054005;28;20115;-58
2022/06/28 09:35:53;;;;;;;2.53;0.80;;;25.50;83.10;;;;;;5055224;28;20074;-58
2022/06/28 09:38:38;;;;;;;2.90;0.60;;;24.80;85.00;;;;;;5052217;28;20079;-58
2022/06/28 09:41:04;;;;;;;4.70;0.90;;;26.00;82.70;;;;;;5050901;28;20433;-58
2022/06/28 09:43:34;;;;;;;3.58;0.98;;;26.40;81.50;;;;;;5054170;28;20029;-58
2022/06/28 09:46:04;;;;;;;5.97;0.90;;;26.40;82.30;;;;;;5053655;28;20025;-58
2022/06/28 09:48:38;;;;;;;3.97;0.70;;;26.70;82.50;;;;;;5055265;28;20476;-60
2022/06/28 09:51:04;;;;;;;7.10;1.00;;;26.80;82.60;;;;;;5054561;28;20389;-58
2022/06/28 09:53:31;;;;;;;6.20;1.13;;;26.70;82.50;;;;;;5053654;28;20058;-58
2022/06/28 09:56:05;;;;;;;7.30;0.95;;;27.20;82.50;;;;;;5054289;28;20139;-58
2022/06/28 09:58:32;;;;;;;3.17;0.95;;;27.20;83.50;;;;;;5051162;28;20392;-58
2022/06/28 10:00:58;;;;;;;5.22;1.08;;;26.60;83.70;;;;;;5048233;28;20033;-58
2022/06/28 10:03:23;;;;;;;1.98;0.63;;;26.10;87.60;;;;;;5049868;28;20473;-58
2022/06/28 10:05:49;;;;;;;3.28;1.00;;;26.30;82.40;;;;;;5047004;28;20039;-58
2022/06/28 10:08:15;;;;;;;2.00;0.77;;;26.40;83.30;;;;;;5050590;28;20118;-58
2022/06/28 10:10:41;;;;;;;4.22;0.85;;;26.90;84.50;;;;;;5046348;28;20414;-58
2022/06/28 10:16:36;;;;;;;6.55;1.02;;;27.60;82.50;;;;;;5047132;28;20032;-59
2022/06/28 10:19:03;;;;;;;3.67;0.93;;;27.00;84.40;;;;;;5049134;28;20603;-59
2022/06/28 10:21:46;;;;;;;5.45;0.98;;;26.60;82.20;;;;;;5041615;28;20038;-58
2022/06/28 10:24:13;;;;;;;6.88;1.40;;;26.40;85.10;;;;;;5047067;28;20031;-58
2022/06/28 10:26:42;;;;;;;6.13;1.30;;;26.90;82.70;;;;;;5051956;28;20035;-58
2022/06/28 10:29:09;;;;;;;3.58;0.90;;;27.60;81.20;;;;;;5046630;28;20425;-60
2022/06/28 10:31:36;;;;;;;3.83;1.00;;;28.50;81.40;;;;;;5045766;28;20029;-61
2022/06/28 10:34:04;;;;;;;3.97;0.82;;;29.40;78.50;;;;;;5046502;28;20033;-60
2022/06/28 10:36:44;;;;;;;7.15;1.00;;;30.00;75.30;;;;;;5049301;28;20570;-60
2022/06/28 10:39:13;;;;;;;5.05;1.00;;;30.50;74.50;;;;;;5047771;28;20060;-59
2022/06/28 10:42:14;;;;;;;3.42;0.90;;;29.60;74.20;;;;;;5045376;28;20471;-59
2022/06/28 10:44:39;;;;;;;5.63;1.00;;;27.90;78.20;;;;;;5050919;28;20042;-59
2022/06/28 10:47:05;;;;;;;4.25;1.00;;;27.30;79.40;;;;;;5044930;28;20036;-59
2022/06/28 10:49:45;;;;;;;6.38;1.13;;;26.70;82.20;;;;;;5051052;28;20032;-59
2022/06/28 10:52:17;;;;;;;3.58;1.08;;;27.10;82.00;;;;;;5046414;28;20040;-59
2022/06/28 10:54:52;;;;;;;5.25;0.90;;;27.10;80.10;;;;;;5051724;28;20049;-59
2022/06/28 10:57:34;;;;;;;4.15;0.82;;;26.60;80.40;;;;;;5046960;28;20898;-59
2022/06/28 11:00:05;;;;;;;;;;;26.60;82.90;;;;;;5049449;28;20025;-59
2022/06/28 11:03:00;;;;;;;3.90;0.77;;;26.80;80.60;;;;;;5049861;28;19921;-59
2022/06/28 11:05:51;;;;;;;5.47;1.13;;;26.80;82.20;;;;;;5045989;28;20123;-59
2022/06/28 11:08:49;;;;;;;5.70;0.82;;;26.70;81.80;;;;;;5044443;28;20021;-59
2022/06/28 11:11:15;;;;;;;3.08;1.15;;;27.30;80.20;;;;;;5028138;28;20037;-59
2022/06/28 11:13:40;;;;;;;3.10;0.82;;;27.70;78.60;;;;;;5049940;28;20459;-60
2022/06/28 11:16:09;;;;;;;3.97;1.10;;;27.20;80.90;;;;;;5047228;28;20130;-60
2022/06/28 11:18:35;;;;;;;2.90;0.90;;;27.20;80.30;;;;;;5041436;28;20078;-58
2022/06/28 11:21:01;;;;;;;2.60;1.02;;;27.30;83.00;;;;;;5047035;28;20068;-58
2022/06/28 11:23:33;;;;;;;3.65;0.90;;;27.60;79.70;;;;;;5038968;28;20396;-58
2022/06/28 11:29:00;;;;;;;2.33;0.93;;;27.40;79.50;;;;;;5043819;28;20082;-58
2022/06/28 11:31:29;;;;;;;3.83;1.00;;;27.10;80.00;;;;;;5047591;28;20028;-58
2022/06/28 11:33:55;;;;;;;4.35;1.10;;;26.80;81.80;;;;;;5039296;28;20072;-58
2022/06/28 11:36:31;;;;;;;3.05;0.80;;;27.00;81.40;;;;;;5043159;28;20108;-58
2022/06/28 11:39:19;;;;;;;4.45;0.90;;;27.40;81.00;;;;;;5059494;28;20689;-58
2022/06/28 11:41:50;;;;;;;1.90;0.80;;;26.40;82.40;;;;;;5040706;28;20111;-57
2022/06/28 11:44:17;;;;;;;6.63;1.30;;;26.90;81.80;;;;;;5046646;28;20078;-58
2022/06/28 11:46:44;;;;;;;2.83;0.95;;;27.10;81.60;;;;;;5044185;28;20028;-59
2022/06/28 11:49:10;;;;;;;3.90;1.05;;;27.70;80.10;;;;;;5047338;28;20419;-59
2022/06/28 11:51:35;;;;;;;2.88;0.80;;;28.00;79.90;;;;;;5047300;28;20035;-59
2022/06/28 11:54:08;;;;;;;2.70;0.80;;;28.10;78.20;;;;;;5054276;28;20048;-59
2022/06/28 11:56:45;;;;;;;2.00;0.88;;;27.80;81.00;;;;;;5044987;28;20409;-61
2022/06/28 11:59:11;;;;;;;5.05;0.82;;;27.70;78.30;;;;;;5045646;28;20036;-59
2022/06/28 12:01:42;;;;;;;2.83;1.10;;;26.50;81.60;;;;;;5043807;28;20024;-59
2022/06/28 12:04:09;;;;;;;3.33;0.85;;;25.70;84.20;;;;;;5048271;28;20028;-60
2022/06/28 12:06:39;;;;;;;3.35;1.10;;;26.80;84.00;;;;;;5050109;28;20020;-59
2022/06/28 12:09:07;;;;;;;3.25;0.88;;;28.30;80.40;;;;;;5056829;28;20123;-60
2022/06/28 12:11:44;;;;;;;4.75;0.98;;;29.50;77.80;;;;;;5054207;28;20374;-59
2022/06/28 12:14:13;;;;;;;2.45;1.05;;;30.00;75.70;;;;;;5045736;28;20552;-60
2022/06/28 12:16:58;;;;;;;3.58;1.05;;;29.90;72.70;;;;;;5046894;28;20037;-59
2022/06/28 12:19:34;;;;;;;4.63;1.42;;;29.00;74.40;;;;;;5051436;28;20152;-60
2022/06/28 12:22:11;;;;;;;4.38;1.17;;;28.90;77.40;;;;;;5050378;28;20063;-59
2022/06/28 12:24:41;;;;;;;2.88;1.10;;;29.10;76.20;;;;;;5051902;28;20496;-60
2022/06/28 12:27:09;;;;;;;4.05;1.27;;;29.20;71.50;;;;;;5047079;28;20308;-60
2022/06/28 12:29:35;;;;;;;4.30;1.00;;;29.20;72.30;;;;;;5044618;28;20116;-59
2022/06/28 12:32:01;;;;;;;3.95;1.25;;;29.00;71.90;;;;;;5056380;28;20035;-60
2022/06/28 12:34:27;;;;;;;8.43;1.13;;;28.00;74.70;;;;;;5050721;28;20040;-57
2022/06/28 12:36:52;;;;;;;5.50;1.20;;;27.80;77.90;;;;;;5050500;28;20086;-57
2022/06/28 12:39:18;;;;;;;8.65;3.55;;;28.40;75.70;;;;;;5056471;28;20032;-57
2022/06/28 12:41:44;;;;;;;5.18;0.98;;;29.90;73.50;;;;;;5048206;28;20040;-59
2022/06/28 12:44:10;;;;;;;4.00;1.17;;;31.20;70.10;;;;;;5054539;28;20051;-59
2022/06/28 12:46:35;;;;;;;4.53;1.10;;;31.50;69.40;;;;;;5052133;28;20125;-60
2022/06/28 12:49:01;;;;;;;4.18;1.38;;;31.20;68.90;;;;;;5057581;28;20025;-59
2022/06/28 12:51:27;;;;;;;6.15;1.20;;;29.50;68.00;;;;;;5063834;28;20105;-59
2022/06/28 12:53:53;;;;;;;5.20;1.98;;;28.90;70.80;;;;;;5055723;28;20051;-59
2022/06/28 12:56:19;;;;;;;4.40;1.30;;;30.20;69.30;;;;;;5052790;28;20052;-59
2022/06/28 12:58:46;;;;;;;3.08;1.30;;;30.10;70.00;;;;;;5051178;28;20063;-59
2022/06/28 13:01:13;;;;;;;3.45;1.23;;;30.00;71.50;;;;;;5058329;28;20364;-59
2022/06/28 13:03:39;;;;;;;4.78;1.50;;;30.10;69.60;;;;;;5060015;28;20016;-59
2022/06/28 13:06:05;;;;;;;8.05;1.83;;;28.80;73.10;;;;;;5061315;28;20024;-60